createdAt,value
2023-01-08T00:02:02.316Z,6.39
2023-01-08T00:04:24.972Z,6.36
2023-01-08T00:06:47.602Z,6.37
2023-01-08T00:09:13.452Z,6.39
2023-01-08T00:11:36.170Z,6.33
2023-01-08T00:13:58.861Z,6.33
2023-01-08T00:16:21.561Z,6.32
2023-01-08T00:18:45.590Z,6.33
2023-01-08T00:21:08.187Z,6.32
2023-01-08T00:23:31.041Z,6.32
2023-01-08T00:25:53.643Z,6.34
2023-01-08T00:28:17.085Z,6.37
2023-01-08T00:30:39.795Z,6.42
2023-01-08T00:33:02.742Z,6.46
2023-01-08T00:35:25.475Z,6.46
2023-01-08T00:37:51.961Z,6.51
2023-01-08T00:40:14.774Z,6.51
2023-01-08T00:42:37.425Z,6.54
2023-01-08T00:45:00.065Z,6.50
2023-01-08T00:47:22.789Z,6.36
2023-01-08T00:49:45.486Z,6.34
2023-01-08T00:52:08.136Z,6.32
2023-01-08T00:54:30.724Z,6.42
2023-01-08T00:56:55.631Z,6.39
2023-01-08T00:59:18.239Z,6.33
2023-01-08T01:01:40.982Z,6.28
2023-01-08T01:04:04.148Z,6.26
2023-01-08T01:06:26.756Z,6.23
2023-01-08T01:08:49.362Z,6.26
2023-01-08T01:11:19.564Z,6.25
2023-01-08T01:13:42.091Z,6.28
2023-01-08T01:16:05.191Z,6.21
2023-01-08T01:18:28.412Z,6.19
2023-01-08T01:20:51.565Z,6.15
2023-01-08T01:23:14.162Z,6.12
2023-01-08T01:25:38.174Z,6.15
2023-01-08T01:28:00.727Z,6.12
2023-01-08T01:30:23.317Z,6.09
2023-01-08T01:32:45.982Z,6.18
2023-01-08T01:35:08.869Z,6.21
2023-01-08T01:37:31.798Z,6.18
2023-01-08T01:39:56.363Z,6.18
2023-01-08T01:42:55.499Z,6.19
2023-01-08T01:45:23.116Z,6.21
2023-01-08T01:48:01.084Z,6.12
2023-01-08T01:50:30.607Z,6.19
2023-01-08T01:52:59.240Z,6.15
2023-01-08T01:55:21.979Z,6.11
2023-01-08T01:57:55.026Z,6.18
2023-01-08T02:00:18.905Z,6.16
2023-01-08T02:02:41.587Z,6.15
2023-01-08T02:05:04.617Z,6.18
2023-01-08T02:07:30.283Z,6.15
2023-01-08T02:10:19.713Z,6.15
2023-01-08T02:12:47.128Z,6.09
2023-01-08T02:15:25.220Z,6.11
2023-01-08T02:18:09.012Z,6.09
2023-01-08T02:20:40.956Z,6.06
2023-01-08T02:23:21.824Z,6.02
2023-01-08T02:26:03.092Z,6.02
2023-01-08T02:28:26.599Z,6.01
2023-01-08T02:30:49.781Z,5.99
2023-01-08T02:33:12.654Z,6.01
2023-01-08T02:35:40.780Z,6.01
2023-01-08T02:38:04.278Z,6.02
2023-01-08T02:40:27.115Z,6.05
2023-01-08T02:42:57.605Z,6.04
2023-01-08T02:45:50.191Z,6.09
2023-01-08T02:48:14.519Z,5.99
2023-01-08T02:50:59.197Z,6.02
2023-01-08T02:53:29.478Z,6.01
2023-01-08T02:55:57.668Z,6.02
2023-01-08T02:58:23.510Z,5.95
2023-01-08T03:00:47.398Z,5.95
2023-01-08T03:03:14.807Z,5.99
2023-01-08T03:05:40.983Z,5.94
2023-01-08T03:08:04.058Z,5.92
2023-01-08T03:10:30.268Z,5.99
2023-01-08T03:13:05.853Z,6.02
2023-01-08T03:15:45.982Z,5.95
2023-01-08T03:18:14.004Z,5.90
2023-01-08T03:20:38.612Z,5.98
2023-01-08T03:23:07.687Z,5.95
2023-01-08T03:25:31.036Z,6.01
2023-01-08T03:28:04.015Z,5.97
2023-01-08T03:30:29.904Z,5.99
2023-01-08T03:32:55.765Z,5.91
2023-01-08T03:35:22.300Z,5.95
2023-01-08T03:37:49.443Z,5.97
2023-01-08T03:40:19.592Z,5.95
2023-01-08T03:42:42.512Z,5.95
2023-01-08T03:45:06.297Z,5.90
2023-01-08T03:47:33.296Z,5.92
2023-01-08T03:49:58.155Z,5.90
2023-01-08T03:52:25.811Z,5.95
2023-01-08T03:54:48.385Z,5.87
2023-01-08T03:57:10.957Z,5.88
2023-01-08T03:59:33.511Z,5.88
2023-01-08T04:01:56.703Z,5.97
2023-01-08T04:04:19.567Z,5.98
2023-01-08T04:06:42.325Z,6.06
2023-01-08T04:09:05.176Z,6.01
2023-01-08T04:11:27.903Z,5.97
2023-01-08T04:13:50.497Z,5.94
2023-01-08T04:16:13.214Z,5.91
2023-01-08T04:18:36.035Z,5.85
2023-01-08T04:20:58.586Z,5.74
2023-01-08T04:23:21.233Z,5.71
2023-01-08T04:25:43.816Z,5.67
2023-01-08T04:28:06.392Z,5.65
2023-01-08T04:30:29.078Z,5.64
2023-01-08T04:32:51.643Z,5.65
2023-01-08T04:35:14.247Z,5.74
2023-01-08T04:37:37.071Z,5.71
2023-01-08T04:39:59.651Z,5.75
2023-01-08T04:42:22.315Z,5.75
2023-01-08T04:44:45.026Z,5.74
2023-01-08T04:47:07.649Z,5.75
2023-01-08T04:49:30.367Z,5.77
2023-01-08T04:51:52.932Z,5.75
2023-01-08T04:54:15.636Z,5.75
2023-01-08T04:56:38.257Z,5.71
2023-01-08T04:59:01.011Z,5.77
2023-01-08T05:01:26.225Z,5.75
2023-01-08T05:03:52.944Z,5.60
2023-01-08T05:06:15.515Z,5.63
2023-01-08T05:08:38.364Z,5.58
2023-01-08T05:11:02.605Z,5.57
2023-01-08T05:13:25.239Z,5.57
2023-01-08T05:15:47.922Z,5.63
2023-01-08T05:18:10.788Z,5.60
2023-01-08T05:20:33.558Z,5.61
2023-01-08T05:22:56.518Z,5.67
2023-01-08T05:25:19.474Z,5.65
2023-01-08T05:27:42.033Z,5.60
2023-01-08T05:30:05.289Z,5.57
2023-01-08T05:32:28.357Z,5.58
2023-01-08T05:34:51.251Z,5.63
2023-01-08T05:37:13.866Z,5.64
2023-01-08T05:39:37.423Z,5.64
2023-01-08T05:41:59.976Z,5.65
2023-01-08T05:44:22.615Z,5.60
2023-01-08T05:46:45.486Z,5.61
2023-01-08T05:49:08.268Z,5.61
2023-01-08T05:51:30.907Z,5.63
2023-01-08T05:53:53.659Z,5.58
2023-01-08T05:56:16.308Z,5.63
2023-01-08T05:58:39.296Z,5.64
2023-01-08T06:01:06.357Z,5.61
2023-01-08T06:03:28.965Z,5.65
2023-01-08T06:05:51.462Z,5.64
2023-01-08T06:08:16.059Z,5.60
2023-01-08T06:10:39.183Z,5.63
2023-01-08T06:13:01.827Z,5.67
2023-01-08T06:15:24.427Z,5.68
2023-01-08T06:17:47.273Z,5.67
2023-01-08T06:20:11.193Z,5.65
2023-01-08T06:22:34.553Z,5.65
2023-01-08T06:24:57.155Z,5.63
2023-01-08T06:27:21.266Z,5.61
2023-01-08T06:29:43.895Z,5.65
2023-01-08T06:32:06.458Z,5.67
2023-01-08T06:34:28.976Z,5.67
2023-01-08T06:36:51.570Z,5.67
2023-01-08T06:39:14.413Z,5.64
2023-01-08T06:41:37.042Z,5.63
2023-01-08T06:43:59.575Z,5.63
2023-01-08T06:46:22.309Z,5.61
2023-01-08T06:48:45.357Z,5.67
2023-01-08T06:51:08.517Z,5.68
2023-01-08T06:53:31.581Z,5.65
2023-01-08T06:55:57.118Z,5.65
2023-01-08T06:58:19.874Z,5.68
2023-01-08T07:00:43.519Z,5.65
2023-01-08T07:03:06.954Z,5.67
2023-01-08T07:05:29.796Z,5.63
2023-01-08T07:07:52.657Z,5.64
2023-01-08T07:10:15.446Z,5.68
2023-01-08T07:12:38.303Z,5.70
2023-01-08T07:15:02.206Z,5.73
2023-01-08T07:17:25.319Z,5.70
2023-01-08T07:19:48.088Z,5.75
2023-01-08T07:22:10.950Z,5.75
2023-01-08T07:24:33.622Z,5.73
2023-01-08T07:26:57.054Z,5.68
2023-01-08T07:29:19.834Z,5.74
2023-01-08T07:31:42.469Z,5.73
2023-01-08T07:34:05.275Z,5.74
2023-01-08T07:36:27.914Z,5.74
2023-01-08T07:38:50.964Z,5.73
2023-01-08T07:41:13.617Z,5.74
2023-01-08T07:43:36.255Z,5.78
2023-01-08T07:46:01.572Z,5.75
2023-01-08T07:48:24.137Z,5.83
2023-01-08T07:50:47.234Z,5.77
2023-01-08T07:53:11.024Z,5.79
2023-01-08T07:55:33.678Z,5.75
2023-01-08T07:57:56.344Z,5.75
2023-01-08T08:00:19.387Z,5.79
2023-01-08T08:02:42.269Z,5.81
2023-01-08T08:05:05.392Z,5.90
2023-01-08T08:07:31.198Z,5.84
2023-01-08T08:09:54.249Z,5.84
2023-01-08T08:12:17.096Z,5.77
2023-01-08T08:14:39.764Z,5.81
2023-01-08T08:17:02.401Z,5.79
2023-01-08T08:19:24.987Z,5.85
2023-01-08T08:21:47.728Z,5.90
2023-01-08T08:24:10.339Z,5.87
2023-01-08T08:26:32.959Z,5.87
2023-01-08T08:28:55.742Z,5.90
2023-01-08T08:31:18.346Z,5.85
2023-01-08T08:33:41.106Z,5.91
2023-01-08T08:36:03.936Z,5.98
2023-01-08T08:38:27.003Z,6.06
2023-01-08T08:40:49.753Z,6.12
2023-01-08T08:43:13.240Z,6.25
2023-01-08T08:45:36.627Z,6.25
2023-01-08T08:47:59.815Z,6.33
2023-01-08T08:50:23.129Z,6.39
2023-01-08T08:52:46.006Z,6.61
2023-01-08T08:55:13.187Z,6.74
2023-01-08T08:57:35.702Z,7.04
2023-01-08T09:00:00.376Z,7.07
2023-01-08T09:02:23.826Z,7.01
2023-01-08T09:04:46.495Z,6.94
2023-01-08T09:07:09.106Z,6.81
2023-01-08T09:09:31.925Z,6.76
2023-01-08T09:11:54.853Z,6.73
2023-01-08T09:14:17.778Z,6.71
2023-01-08T09:16:40.646Z,6.63
2023-01-08T09:19:04.469Z,6.58
2023-01-08T09:21:27.406Z,6.70
2023-01-08T09:23:50.202Z,6.99
2023-01-08T09:26:13.091Z,7.22
2023-01-08T09:28:36.265Z,7.29
2023-01-08T09:31:03.956Z,7.32
2023-01-08T09:33:26.607Z,7.28
2023-01-08T09:35:49.171Z,7.22
2023-01-08T09:38:12.151Z,7.26
2023-01-08T09:40:55.698Z,7.25
2023-01-08T09:43:20.760Z,7.35
2023-01-08T09:45:45.772Z,7.45
2023-01-08T09:48:14.293Z,7.52
2023-01-08T09:50:37.808Z,7.57
2023-01-08T09:53:01.415Z,7.64
2023-01-08T09:55:23.934Z,7.70
2023-01-08T09:57:48.180Z,7.74
2023-01-08T10:00:15.378Z,7.80
2023-01-08T10:02:40.540Z,7.83
2023-01-08T10:05:11.301Z,7.93
2023-01-08T10:07:33.923Z,8.09
2023-01-08T10:09:56.892Z,8.09
2023-01-08T10:12:29.217Z,8.15
2023-01-08T10:14:54.393Z,8.20
2023-01-08T10:17:28.296Z,8.26
2023-01-08T10:19:51.091Z,8.36
2023-01-08T10:22:19.791Z,8.50
2023-01-08T10:24:43.376Z,8.67
2023-01-08T10:27:13.925Z,8.88
2023-01-08T10:29:36.992Z,9.07
2023-01-08T10:32:09.367Z,9.21
2023-01-08T10:34:33.493Z,9.36
2023-01-08T10:36:56.507Z,9.60
2023-01-08T10:39:24.025Z,9.66
2023-01-08T10:41:48.653Z,9.69
2023-01-08T10:44:17.549Z,9.89
2023-01-08T10:46:50.400Z,10.08
2023-01-08T10:49:22.838Z,10.20
2023-01-08T10:51:53.382Z,10.15
2023-01-08T10:54:35.610Z,10.25
2023-01-08T10:57:00.178Z,10.10
2023-01-08T10:59:24.870Z,10.17
2023-01-08T11:01:48.689Z,10.30
2023-01-08T11:04:28.474Z,10.58
2023-01-08T11:06:51.859Z,10.49
2023-01-08T11:09:22.974Z,10.61
2023-01-08T11:11:45.976Z,10.59
2023-01-08T11:14:29.273Z,10.77
2023-01-08T11:16:53.182Z,10.84
2023-01-08T11:19:28.945Z,11.07
2023-01-08T11:22:03.231Z,11.00
2023-01-08T11:24:38.601Z,11.07
2023-01-08T11:27:08.915Z,11.03
2023-01-08T11:30:06.953Z,11.04
2023-01-08T11:32:55.016Z,11.16
2023-01-08T11:35:32.945Z,11.17
2023-01-08T11:37:59.632Z,11.13
2023-01-08T11:40:31.234Z,11.04
2023-01-08T11:43:35.108Z,10.83
2023-01-08T11:46:03.726Z,10.70
2023-01-08T11:48:48.247Z,10.58
2023-01-08T11:51:41.912Z,10.46
2023-01-08T11:54:16.356Z,10.53
2023-01-08T11:56:59.474Z,10.45
2023-01-08T11:59:47.903Z,10.59
2023-01-08T12:02:29.342Z,10.72
2023-01-08T12:05:12.611Z,10.88
2023-01-08T12:07:42.418Z,11.11
2023-01-08T12:10:33.934Z,11.26
2023-01-08T12:13:02.322Z,11.14
2023-01-08T12:15:43.748Z,11.16
2023-01-08T12:18:27.953Z,11.03
2023-01-08T12:21:14.347Z,11.06
2023-01-08T12:23:52.954Z,11.07
2023-01-08T12:26:44.652Z,11.06
2023-01-08T12:29:39.206Z,11.10
2023-01-08T12:32:29.186Z,11.01
2023-01-08T12:35:08.981Z,10.99
2023-01-08T12:38:13.058Z,10.92
2023-01-08T12:40:41.555Z,11.00
2023-01-08T12:43:09.106Z,11.06
2023-01-08T12:45:45.998Z,10.93
2023-01-08T12:48:15.785Z,10.90
2023-01-08T12:50:52.004Z,10.88
2023-01-08T12:53:32.076Z,10.90
2023-01-08T12:56:12.784Z,10.81
2023-01-08T12:58:38.714Z,10.88
2023-01-08T13:01:25.517Z,10.86
2023-01-08T13:03:49.331Z,10.84
2023-01-08T13:06:15.780Z,10.68
2023-01-08T13:08:39.863Z,10.75
2023-01-08T13:11:03.545Z,10.75
2023-01-08T13:13:32.504Z,10.76
2023-01-08T13:16:11.961Z,10.72
2023-01-08T13:18:35.151Z,10.68
2023-01-08T13:21:00.487Z,10.68
2023-01-08T13:23:29.650Z,10.61
2023-01-08T13:25:54.194Z,10.73
2023-01-08T13:28:28.894Z,10.73
2023-01-08T13:30:52.148Z,10.77
2023-01-08T13:33:36.206Z,10.66
2023-01-08T13:36:18.424Z,10.62
2023-01-08T13:38:41.973Z,10.65
2023-01-08T13:41:04.931Z,10.59
2023-01-08T13:43:38.821Z,10.63
2023-01-08T13:46:01.427Z,10.61
2023-01-08T13:48:29.664Z,10.66
2023-01-08T13:50:53.166Z,10.61
2023-01-08T13:53:15.829Z,10.65
2023-01-08T13:55:41.736Z,10.65
2023-01-08T13:58:10.100Z,10.59
2023-01-08T14:00:43.002Z,10.56
2023-01-08T14:03:23.820Z,10.66
2023-01-08T14:05:46.475Z,10.53
2023-01-08T14:08:22.697Z,10.59
2023-01-08T14:10:45.477Z,10.59
2023-01-08T14:13:09.375Z,10.65
2023-01-08T14:15:34.626Z,10.62
2023-01-08T14:17:57.864Z,10.65
2023-01-08T14:20:34.273Z,10.58
2023-01-08T14:22:57.362Z,10.59
2023-01-08T14:25:20.322Z,10.68
2023-01-08T14:27:42.912Z,10.63
2023-01-08T14:30:15.917Z,10.72
2023-01-08T14:32:43.637Z,10.70
2023-01-08T14:35:09.417Z,10.68
2023-01-08T14:37:32.120Z,10.73
2023-01-08T14:39:55.391Z,10.70
2023-01-08T14:42:44.298Z,10.77
2023-01-08T14:45:14.918Z,10.76
2023-01-08T14:47:45.736Z,10.76
2023-01-08T14:50:18.281Z,10.72
2023-01-08T14:52:41.095Z,10.79
2023-01-08T14:55:04.313Z,10.81
2023-01-08T14:57:28.143Z,10.80
2023-01-08T15:00:01.768Z,10.84
2023-01-08T15:02:31.480Z,10.76
2023-01-08T15:05:17.619Z,10.76
2023-01-08T15:07:44.150Z,10.80
2023-01-08T15:10:31.806Z,10.72
2023-01-08T15:12:57.777Z,10.90
2023-01-08T15:15:24.456Z,10.81
2023-01-08T15:17:47.107Z,10.86
2023-01-08T15:20:17.473Z,10.88
2023-01-08T15:22:45.566Z,10.84
2023-01-08T15:25:25.012Z,10.88
2023-01-08T15:28:15.201Z,10.92
2023-01-08T15:30:43.894Z,10.96
2023-01-08T15:33:27.354Z,10.96
2023-01-08T15:35:50.602Z,10.93
2023-01-08T15:38:13.730Z,10.99
2023-01-08T15:40:36.444Z,10.99
2023-01-08T15:43:11.263Z,11.03
2023-01-08T15:45:33.969Z,10.96
2023-01-08T15:47:56.762Z,10.95
2023-01-08T15:50:20.598Z,10.95
2023-01-08T15:52:44.088Z,11.01
2023-01-08T15:55:07.703Z,11.00
2023-01-08T15:57:30.620Z,11.06
2023-01-08T15:59:53.275Z,11.07
2023-01-08T16:02:16.555Z,11.17
2023-01-08T16:04:39.678Z,11.23
2023-01-08T16:07:02.387Z,11.17
2023-01-08T16:09:25.029Z,11.18
2023-01-08T16:11:47.632Z,11.20
2023-01-08T16:14:11.176Z,11.17
2023-01-08T16:16:34.020Z,11.13
2023-01-08T16:18:56.696Z,10.96
2023-01-08T16:21:19.309Z,10.97
2023-01-08T16:23:42.366Z,10.99
2023-01-08T16:26:10.857Z,10.90
2023-01-08T16:28:33.564Z,10.89
2023-01-08T16:30:56.198Z,10.88
2023-01-08T16:33:18.851Z,10.92
2023-01-08T16:35:41.341Z,10.88
2023-01-08T16:38:03.885Z,10.88
2023-01-08T16:40:26.474Z,10.89
2023-01-08T16:42:49.160Z,10.92
2023-01-08T16:45:11.950Z,10.89
2023-01-08T16:47:39.351Z,10.92
2023-01-08T16:50:02.468Z,10.83
2023-01-08T16:52:26.603Z,10.93
2023-01-08T16:54:49.186Z,10.86
2023-01-08T16:57:11.967Z,10.77
2023-01-08T16:59:34.712Z,10.80
2023-01-08T17:01:57.432Z,10.84
2023-01-08T17:04:20.824Z,10.79
2023-01-08T17:06:43.716Z,10.73
2023-01-08T17:09:10.269Z,10.70
2023-01-08T17:11:34.734Z,10.79
2023-01-08T17:13:58.594Z,10.84
2023-01-08T17:16:21.247Z,10.93
2023-01-08T17:18:44.923Z,10.89
2023-01-08T17:21:09.476Z,10.76
2023-01-08T17:23:32.345Z,10.76
2023-01-08T17:25:59.878Z,10.86
2023-01-08T17:28:30.927Z,10.69
2023-01-08T17:31:01.119Z,10.77
2023-01-08T17:33:23.786Z,10.89
2023-01-08T17:35:46.758Z,10.88
2023-01-08T17:38:09.370Z,10.79
2023-01-08T17:40:32.126Z,10.70
2023-01-08T17:42:55.731Z,10.76
2023-01-08T17:45:18.378Z,10.80
2023-01-08T17:47:41.613Z,10.75
2023-01-08T17:50:05.942Z,10.72
2023-01-08T17:52:28.614Z,10.79
2023-01-08T17:54:52.296Z,10.86
2023-01-08T17:57:16.856Z,10.90
2023-01-08T17:59:39.646Z,10.72
2023-01-08T18:02:02.650Z,10.79
2023-01-08T18:04:25.983Z,10.88
2023-01-08T18:06:49.061Z,10.92
2023-01-08T18:09:12.719Z,10.84
2023-01-08T18:11:35.897Z,10.76
2023-01-08T18:14:00.605Z,10.76
2023-01-08T18:16:24.194Z,10.70
2023-01-08T18:18:47.120Z,10.73
2023-01-08T18:21:10.196Z,10.72
2023-01-08T18:23:33.670Z,10.73
2023-01-08T18:25:56.504Z,10.80
2023-01-08T18:28:19.385Z,10.88
2023-01-08T18:30:42.985Z,10.95
2023-01-08T18:33:06.112Z,11.00
2023-01-08T18:35:29.140Z,11.07
2023-01-08T18:37:51.795Z,10.99
2023-01-08T18:40:14.681Z,10.88
2023-01-08T18:42:37.369Z,10.79
2023-01-08T18:45:00.665Z,10.95
2023-01-08T18:47:25.310Z,11.07
2023-01-08T18:49:48.327Z,11.10
2023-01-08T18:52:14.031Z,11.06
2023-01-08T18:54:36.746Z,11.07
2023-01-08T18:56:59.576Z,11.10
2023-01-08T18:59:22.267Z,11.03
2023-01-08T19:01:44.961Z,11.07
2023-01-08T19:04:15.918Z,11.06
2023-01-08T19:06:38.719Z,11.04
2023-01-08T19:09:01.646Z,11.01
2023-01-08T19:11:24.508Z,10.96
2023-01-08T19:13:47.566Z,10.95
2023-01-08T19:16:12.876Z,10.93
2023-01-08T19:18:36.512Z,10.96
2023-01-08T19:21:00.165Z,11.00
2023-01-08T19:23:22.988Z,10.93
2023-01-08T19:25:45.952Z,11.01
2023-01-08T19:28:09.074Z,10.92
2023-01-08T19:30:32.167Z,10.96
2023-01-08T19:32:56.049Z,10.95
2023-01-08T19:35:18.858Z,10.99
2023-01-08T19:37:41.556Z,11.08
2023-01-08T19:40:06.298Z,11.14
2023-01-08T19:42:48.014Z,11.03
2023-01-08T19:45:11.621Z,11.07
2023-01-08T19:47:34.289Z,11.13
2023-01-08T19:49:57.325Z,11.20
2023-01-08T19:52:20.332Z,11.17
2023-01-08T19:54:43.588Z,11.00
2023-01-08T19:57:06.413Z,11.00
2023-01-08T19:59:29.455Z,10.95
2023-01-08T20:01:52.340Z,10.61
2023-01-08T20:04:15.165Z,10.51
2023-01-08T20:06:37.992Z,10.49
2023-01-08T20:09:02.129Z,10.48
2023-01-08T20:11:25.766Z,10.30
2023-01-08T20:13:49.017Z,10.28
2023-01-08T20:16:15.413Z,10.31
2023-01-08T20:18:38.511Z,10.28
2023-01-08T20:21:16.655Z,10.20
2023-01-08T20:23:39.840Z,10.08
2023-01-08T20:26:06.440Z,10.21
2023-01-08T20:28:29.398Z,10.18
2023-01-08T20:30:52.578Z,10.11
2023-01-08T20:33:17.672Z,10.05
2023-01-08T20:35:40.695Z,9.89
2023-01-08T20:38:03.484Z,9.79
2023-01-08T20:40:26.122Z,9.60
2023-01-08T20:42:48.939Z,9.56
2023-01-08T20:45:11.910Z,9.48
2023-01-08T20:47:35.450Z,9.38
2023-01-08T20:49:58.227Z,9.38
2023-01-08T20:52:20.956Z,9.39
2023-01-08T20:54:43.701Z,9.40
2023-01-08T20:57:06.462Z,9.48
2023-01-08T20:59:29.443Z,9.48
2023-01-08T21:01:52.588Z,9.31
2023-01-08T21:04:15.492Z,9.34
2023-01-08T21:06:38.931Z,9.21
2023-01-08T21:09:06.831Z,9.21
2023-01-08T21:11:30.679Z,9.19
2023-01-08T21:13:55.285Z,9.10
2023-01-08T21:16:22.928Z,8.98
2023-01-08T21:18:48.816Z,8.97
2023-01-08T21:21:13.163Z,9.00
2023-01-08T21:23:35.809Z,9.00
2023-01-08T21:26:00.127Z,8.84
2023-01-08T21:28:23.891Z,8.81
2023-01-08T21:30:46.588Z,8.84
2023-01-08T21:33:09.250Z,8.90
2023-01-08T21:35:33.634Z,8.98
2023-01-08T21:37:56.148Z,9.10
2023-01-08T21:40:19.215Z,9.07
2023-01-08T21:43:00.675Z,8.94
2023-01-08T21:45:25.934Z,8.81
2023-01-08T21:47:48.505Z,8.80
2023-01-08T21:50:11.918Z,8.81
2023-01-08T21:52:53.160Z,8.73
2023-01-08T21:55:17.406Z,8.67
2023-01-08T21:57:40.094Z,8.67
2023-01-08T22:00:02.770Z,8.67
2023-01-08T22:02:27.554Z,8.77
2023-01-08T22:04:53.443Z,8.84
2023-01-08T22:07:16.688Z,8.91
2023-01-08T22:09:39.367Z,8.98
2023-01-08T22:12:02.612Z,8.84
2023-01-08T22:14:25.287Z,8.92
2023-01-08T22:16:47.938Z,8.96
2023-01-08T22:19:11.089Z,8.90
2023-01-08T22:21:34.002Z,8.83
2023-01-08T22:23:57.396Z,8.74
2023-01-08T22:26:20.325Z,8.71
2023-01-08T22:28:43.485Z,8.73
2023-01-08T22:31:11.885Z,8.73
2023-01-08T22:33:34.669Z,8.66
2023-01-08T22:35:57.384Z,8.56
2023-01-08T22:38:20.036Z,8.46
2023-01-08T22:40:43.258Z,8.41
2023-01-08T22:43:06.166Z,8.32
2023-01-08T22:45:29.139Z,8.28
2023-01-08T22:47:51.828Z,8.42
2023-01-08T22:50:14.690Z,8.28
2023-01-08T22:52:37.383Z,8.41
2023-01-08T22:54:59.981Z,8.35
2023-01-08T22:57:22.605Z,8.29
2023-01-08T22:59:45.203Z,8.24
2023-01-08T23:02:07.798Z,8.24
2023-01-08T23:04:30.435Z,8.24
2023-01-08T23:06:53.131Z,8.22
2023-01-08T23:09:15.888Z,8.20
2023-01-08T23:11:38.774Z,8.16
2023-01-08T23:14:01.651Z,8.16
2023-01-08T23:16:25.519Z,8.24
2023-01-08T23:18:48.218Z,8.28
2023-01-08T23:21:16.600Z,8.31
2023-01-08T23:23:39.813Z,8.32
2023-01-08T23:26:04.804Z,8.26
2023-01-08T23:28:27.429Z,8.35
2023-01-08T23:30:50.051Z,8.48
2023-01-08T23:33:12.629Z,8.49
2023-01-08T23:35:35.414Z,8.45
2023-01-08T23:37:58.235Z,8.46
2023-01-08T23:40:20.960Z,8.57
2023-01-08T23:42:43.744Z,8.64
2023-01-08T23:45:06.916Z,8.64
2023-01-08T23:47:29.507Z,8.67
2023-01-08T23:49:52.181Z,8.77
2023-01-08T23:52:14.856Z,8.80
2023-01-08T23:54:37.541Z,8.90
2023-01-08T23:57:00.172Z,8.88
2023-01-08T23:59:22.870Z,8.91
